createdAt,value
2023-02-11T00:01:36.693Z,-2.90
2023-02-11T00:04:04.371Z,-2.90
2023-02-11T00:06:32.141Z,-2.90
2023-02-11T00:08:59.272Z,-3.00
2023-02-11T00:11:30.407Z,-3.00
2023-02-11T00:13:57.974Z,-2.60
2023-02-11T00:16:24.800Z,-3.00
2023-02-11T00:18:54.043Z,-3.00
2023-02-11T00:21:22.505Z,-3.00
2023-02-11T00:23:49.237Z,-2.90
2023-02-11T00:26:17.436Z,-2.30
2023-02-11T00:28:44.216Z,-2.90
2023-02-11T00:31:11.251Z,-2.90
2023-02-11T00:33:38.146Z,-2.90
2023-02-11T00:36:05.599Z,-3.00
2023-02-11T00:38:32.263Z,-2.90
2023-02-11T00:40:58.922Z,-2.90
2023-02-11T00:43:25.620Z,-2.80
2023-02-11T00:45:52.767Z,-2.80
2023-02-11T00:48:19.560Z,-2.80
2023-02-11T00:50:46.246Z,-2.70
2023-02-11T00:53:12.990Z,-2.80
2023-02-11T00:55:39.732Z,-2.80
2023-02-11T00:58:06.390Z,-0.90
2023-02-11T01:00:33.129Z,-2.90
2023-02-11T01:02:59.802Z,-2.90
2023-02-11T01:05:26.552Z,-3.00
2023-02-11T01:07:53.187Z,-3.00
2023-02-11T01:10:19.868Z,-3.10
2023-02-11T01:12:46.521Z,-3.30
2023-02-11T01:15:17.854Z,-3.40
2023-02-11T01:17:44.561Z,-3.40
2023-02-11T01:20:14.941Z,-3.40
2023-02-11T01:22:41.790Z,-3.40
2023-02-11T01:25:09.025Z,-3.40
2023-02-11T01:27:36.575Z,-3.40
2023-02-11T01:30:05.699Z,-3.40
2023-02-11T01:32:32.775Z,-3.40
2023-02-11T01:34:59.871Z,-0.50
2023-02-11T01:37:26.713Z,-3.40
2023-02-11T01:39:53.457Z,-3.40
2023-02-11T01:42:21.248Z,-3.40
2023-02-11T01:44:52.268Z,-3.40
2023-02-11T01:47:19.594Z,-3.40
2023-02-11T01:49:47.892Z,-3.50
2023-02-11T01:52:17.611Z,-3.50
2023-02-11T01:55:05.134Z,-1.60
2023-02-11T01:57:33.510Z,-3.50
2023-02-11T02:00:03.960Z,-3.50
2023-02-11T02:02:48.733Z,-3.50
2023-02-11T02:05:30.309Z,-3.60
2023-02-11T02:08:00.155Z,-3.60
2023-02-11T02:10:27.969Z,-3.60
2023-02-11T02:12:54.821Z,-3.50
2023-02-11T02:15:29.230Z,-3.50
2023-02-11T02:18:06.140Z,-3.50
2023-02-11T02:20:52.008Z,-3.50
2023-02-11T02:23:36.977Z,-3.50
2023-02-11T02:26:22.475Z,-6.10
2023-02-11T02:29:07.473Z,-3.50
2023-02-11T02:31:47.188Z,-3.50
2023-02-11T02:34:19.988Z,-3.60
2023-02-11T02:36:49.234Z,-3.50
2023-02-11T02:39:20.465Z,-3.50
2023-02-11T02:41:48.604Z,-3.50
2023-02-11T02:44:15.266Z,-3.50
2023-02-11T02:46:42.038Z,-3.50
2023-02-11T02:49:15.532Z,-3.40
2023-02-11T02:51:47.189Z,-3.50
2023-02-11T02:54:22.954Z,-3.50
2023-02-11T02:56:52.696Z,-3.60
2023-02-11T02:59:25.844Z,-3.60
2023-02-11T03:02:11.120Z,-3.60
2023-02-11T03:04:37.660Z,-3.60
2023-02-11T03:07:13.496Z,-3.70
2023-02-11T03:09:50.664Z,-3.70
2023-02-11T03:12:17.551Z,-3.70
2023-02-11T03:14:44.918Z,-3.70
2023-02-11T03:17:13.682Z,-3.70
2023-02-11T03:19:42.880Z,-3.70
2023-02-11T03:22:35.939Z,-3.80
2023-02-11T03:25:02.957Z,-3.80
2023-02-11T03:27:41.444Z,-3.70
2023-02-11T03:30:14.560Z,-3.70
2023-02-11T03:32:43.999Z,-3.70
2023-02-11T03:35:14.933Z,-3.70
2023-02-11T03:37:52.207Z,-3.60
2023-02-11T03:40:39.143Z,-3.70
2023-02-11T03:43:11.318Z,-3.70
2023-02-11T03:45:38.605Z,-3.70
2023-02-11T03:48:28.338Z,-3.70
2023-02-11T03:50:56.513Z,-3.60
2023-02-11T03:53:23.523Z,-3.60
2023-02-11T03:55:51.398Z,-3.50
2023-02-11T03:58:18.230Z,-3.40
2023-02-11T04:00:45.274Z,-3.40
2023-02-11T04:03:12.361Z,-3.40
2023-02-11T04:05:39.048Z,-3.30
2023-02-11T04:08:05.743Z,-3.30
2023-02-11T04:10:32.492Z,-3.30
2023-02-11T04:12:59.254Z,-3.50
2023-02-11T04:15:25.965Z,-3.60
2023-02-11T04:17:52.628Z,-3.70
2023-02-11T04:20:19.451Z,-3.60
2023-02-11T04:22:46.191Z,-3.60
2023-02-11T04:25:12.928Z,-3.60
2023-02-11T04:27:39.669Z,-2.00
2023-02-11T04:30:06.932Z,-3.50
2023-02-11T04:32:33.700Z,-3.40
2023-02-11T04:35:00.460Z,-3.30
2023-02-11T04:37:27.145Z,-1.50
2023-02-11T04:39:53.871Z,-1.80
2023-02-11T04:42:20.550Z,-3.20
2023-02-11T04:44:47.240Z,-3.20
2023-02-11T04:47:15.395Z,-3.20
2023-02-11T04:49:42.139Z,-3.10
2023-02-11T04:52:09.028Z,-3.00
2023-02-11T04:54:35.765Z,-3.00
2023-02-11T04:57:02.712Z,-0.90
2023-02-11T04:59:29.357Z,-2.90
2023-02-11T05:01:56.059Z,-2.90
2023-02-11T05:04:23.025Z,-2.80
2023-02-11T05:06:49.730Z,-2.80
2023-02-11T05:09:16.928Z,-2.70
2023-02-11T05:11:43.681Z,-2.70
2023-02-11T05:14:10.362Z,-2.60
2023-02-11T05:16:37.087Z,-2.60
2023-02-11T05:19:03.828Z,-2.60
2023-02-11T05:21:30.623Z,-2.50
2023-02-11T05:23:57.537Z,-2.10
2023-02-11T05:26:24.165Z,-2.50
2023-02-11T05:28:50.789Z,-2.50
2023-02-11T05:31:17.757Z,-2.50
2023-02-11T05:33:44.533Z,-2.50
2023-02-11T05:36:12.035Z,-2.50
2023-02-11T05:38:39.085Z,-2.50
2023-02-11T05:41:06.511Z,-2.50
2023-02-11T05:43:35.158Z,-2.40
2023-02-11T05:46:01.859Z,0.30
2023-02-11T05:48:28.562Z,-2.50
2023-02-11T05:50:55.298Z,-2.50
2023-02-11T05:53:22.041Z,-1.70
2023-02-11T05:55:49.018Z,-2.50
2023-02-11T05:58:16.033Z,-2.50
2023-02-11T06:00:43.025Z,-1.80
2023-02-11T06:03:09.826Z,-2.40
2023-02-11T06:05:36.566Z,-2.40
2023-02-11T06:08:03.303Z,-2.30
2023-02-11T06:10:30.042Z,-1.40
2023-02-11T06:12:56.785Z,-2.20
2023-02-11T06:15:23.529Z,-2.20
2023-02-11T06:17:50.987Z,-2.20
2023-02-11T06:20:17.667Z,-2.10
2023-02-11T06:22:44.359Z,-2.10
2023-02-11T06:25:11.371Z,-2.00
2023-02-11T06:27:38.573Z,-2.00
2023-02-11T06:30:06.329Z,-2.00
2023-02-11T06:32:43.935Z,-2.00
2023-02-11T06:35:12.645Z,-2.00
2023-02-11T06:37:39.801Z,-2.00
2023-02-11T06:40:07.063Z,-1.90
2023-02-11T06:42:34.589Z,-2.00
2023-02-11T06:45:01.319Z,-1.90
2023-02-11T06:47:28.148Z,-2.00
2023-02-11T06:49:54.896Z,-2.00
2023-02-11T06:52:21.622Z,0.10
2023-02-11T06:54:48.273Z,-1.90
2023-02-11T06:57:14.962Z,-1.90
2023-02-11T06:59:41.981Z,-1.80
2023-02-11T07:02:09.620Z,-1.70
2023-02-11T07:04:36.468Z,-1.70
2023-02-11T07:07:03.208Z,-1.70
2023-02-11T07:09:29.860Z,-1.70
2023-02-11T07:11:56.732Z,-1.70
2023-02-11T07:14:23.470Z,-1.70
2023-02-11T07:16:50.166Z,-1.80
2023-02-11T07:19:17.115Z,-1.70
2023-02-11T07:21:43.764Z,-1.70
2023-02-11T07:24:11.484Z,-1.60
2023-02-11T07:26:38.239Z,-1.60
2023-02-11T07:29:04.900Z,-1.50
2023-02-11T07:31:31.846Z,-1.50
2023-02-11T07:34:00.685Z,-1.50
2023-02-11T07:36:28.084Z,-1.50
2023-02-11T07:38:54.810Z,-1.50
2023-02-11T07:41:22.800Z,-1.40
2023-02-11T07:43:49.949Z,-1.40
2023-02-11T07:46:18.947Z,-1.40
2023-02-11T07:48:46.476Z,-1.30
2023-02-11T07:51:17.340Z,1.50
2023-02-11T07:53:44.380Z,-1.30
2023-02-11T07:56:12.452Z,-1.20
2023-02-11T07:58:42.045Z,0.60
2023-02-11T08:01:10.503Z,-1.10
2023-02-11T08:03:38.075Z,0.00
2023-02-11T08:06:06.176Z,-1.00
2023-02-11T08:08:32.820Z,-1.00
2023-02-11T08:10:59.463Z,-0.90
2023-02-11T08:13:27.054Z,-0.90
2023-02-11T08:15:53.914Z,0.70
2023-02-11T08:18:20.574Z,-0.90
2023-02-11T08:20:47.237Z,-0.80
2023-02-11T08:23:13.866Z,-0.70
2023-02-11T08:25:40.509Z,-0.60
2023-02-11T08:28:09.161Z,-0.60
2023-02-11T08:30:35.912Z,-0.50
2023-02-11T08:33:02.489Z,-0.40
2023-02-11T08:35:29.206Z,-0.20
2023-02-11T08:37:55.841Z,-0.20
2023-02-11T08:40:22.517Z,-0.10
2023-02-11T08:42:49.101Z,0.00
2023-02-11T08:45:15.789Z,2.30
2023-02-11T08:47:42.439Z,0.30
2023-02-11T08:50:09.421Z,0.40
2023-02-11T08:52:36.330Z,0.50
2023-02-11T08:55:03.129Z,0.60
2023-02-11T08:57:29.714Z,0.70
2023-02-11T08:59:56.305Z,0.80
2023-02-11T09:02:23.077Z,0.80
2023-02-11T09:04:49.733Z,0.80
2023-02-11T09:07:16.442Z,1.00
2023-02-11T09:09:43.066Z,0.90
2023-02-11T09:12:09.710Z,0.80
2023-02-11T09:14:36.402Z,0.80
2023-02-11T09:17:03.156Z,0.80
2023-02-11T09:19:29.922Z,0.80
2023-02-11T09:21:56.970Z,0.80
2023-02-11T09:24:23.712Z,0.90
2023-02-11T09:26:50.410Z,0.90
2023-02-11T09:29:16.956Z,1.00
2023-02-11T09:31:43.864Z,1.00
2023-02-11T09:34:11.082Z,1.10
2023-02-11T09:36:38.755Z,1.30
2023-02-11T09:39:06.573Z,1.40
2023-02-11T09:41:38.181Z,1.40
2023-02-11T09:44:06.854Z,1.60
2023-02-11T09:46:36.404Z,1.60
2023-02-11T09:49:04.755Z,1.70
2023-02-11T09:51:36.051Z,1.80
2023-02-11T09:54:11.647Z,1.80
2023-02-11T09:56:38.379Z,1.90
2023-02-11T09:59:05.116Z,1.90
2023-02-11T10:01:31.914Z,1.90
2023-02-11T10:03:58.735Z,1.90
2023-02-11T10:06:40.506Z,1.90
2023-02-11T10:09:20.611Z,1.80
2023-02-11T10:12:05.765Z,1.90
2023-02-11T10:14:51.338Z,2.00
2023-02-11T10:17:26.651Z,2.10
2023-02-11T10:20:12.024Z,2.30
2023-02-11T10:22:45.360Z,2.50
2023-02-11T10:25:18.858Z,2.60
2023-02-11T10:27:45.983Z,2.70
2023-02-11T10:30:19.250Z,2.70
2023-02-11T10:32:48.767Z,2.90
2023-02-11T10:35:18.083Z,3.00
2023-02-11T10:37:45.361Z,3.20
2023-02-11T10:40:19.572Z,3.20
2023-02-11T10:42:48.325Z,3.30
2023-02-11T10:45:22.308Z,3.50
2023-02-11T10:47:48.919Z,3.50
2023-02-11T10:50:18.934Z,3.60
2023-02-11T10:52:45.571Z,3.70
2023-02-11T10:55:18.116Z,4.30
2023-02-11T10:58:04.963Z,3.80
2023-02-11T11:00:32.461Z,3.90
2023-02-11T11:02:59.988Z,4.00
2023-02-11T11:05:29.463Z,4.10
2023-02-11T11:07:57.206Z,4.10
2023-02-11T11:10:43.361Z,4.20
2023-02-11T11:13:28.553Z,4.30
2023-02-11T11:16:13.423Z,4.40
2023-02-11T11:18:44.458Z,4.40
2023-02-11T11:21:16.121Z,4.50
2023-02-11T11:23:48.097Z,4.60
2023-02-11T11:26:15.555Z,4.70
2023-02-11T11:29:00.079Z,4.60
2023-02-11T11:31:28.804Z,4.70
2023-02-11T11:33:57.214Z,4.80
2023-02-11T11:36:30.989Z,4.90
2023-02-11T11:39:00.538Z,4.90
2023-02-11T11:41:34.087Z,4.90
2023-02-11T11:44:00.727Z,5.00
2023-02-11T11:46:35.704Z,5.10
2023-02-11T11:49:21.906Z,5.10
2023-02-11T11:52:14.867Z,5.20
2023-02-11T11:54:43.414Z,5.30
2023-02-11T11:57:16.388Z,5.40
2023-02-11T11:59:43.120Z,5.40
2023-02-11T12:02:18.817Z,5.50
2023-02-11T12:04:51.480Z,5.50
2023-02-11T12:07:22.389Z,5.50
2023-02-11T12:10:04.231Z,5.40
2023-02-11T12:12:57.072Z,5.40
2023-02-11T12:15:36.539Z,5.30
2023-02-11T12:18:06.295Z,5.30
2023-02-11T12:20:39.273Z,5.40
2023-02-11T12:23:09.301Z,5.40
2023-02-11T12:25:52.374Z,5.50
2023-02-11T12:28:32.377Z,5.60
2023-02-11T12:31:13.126Z,5.70
2023-02-11T12:33:58.390Z,5.80
2023-02-11T12:36:43.942Z,5.90
2023-02-11T12:39:18.414Z,5.90
2023-02-11T12:42:03.719Z,6.00
2023-02-11T12:44:41.595Z,6.00
2023-02-11T12:47:22.620Z,6.10
2023-02-11T12:50:09.205Z,6.20
2023-02-11T12:52:42.980Z,6.30
2023-02-11T12:55:29.879Z,6.40
2023-02-11T12:57:57.933Z,7.30
2023-02-11T13:00:26.974Z,6.40
2023-02-11T13:02:54.484Z,6.50
2023-02-11T13:05:43.228Z,6.40
2023-02-11T13:08:22.101Z,6.50
2023-02-11T13:10:50.950Z,6.50
2023-02-11T13:13:26.845Z,6.50
2023-02-11T13:16:03.971Z,6.70
2023-02-11T13:18:44.984Z,6.70
2023-02-11T13:21:14.733Z,6.80
2023-02-11T13:23:43.813Z,6.90
2023-02-11T13:26:13.603Z,7.00
2023-02-11T13:28:44.886Z,7.00
2023-02-11T13:31:12.963Z,7.10
2023-02-11T13:33:43.015Z,7.20
2023-02-11T13:36:09.612Z,7.20
2023-02-11T13:38:36.565Z,7.30
2023-02-11T13:41:05.042Z,7.30
2023-02-11T13:43:32.894Z,7.30
2023-02-11T13:46:04.328Z,7.50
2023-02-11T13:48:38.819Z,7.60
2023-02-11T13:51:07.219Z,7.60
2023-02-11T13:53:48.625Z,7.70
2023-02-11T13:56:29.349Z,7.70
2023-02-11T13:58:56.255Z,7.70
2023-02-11T14:01:39.318Z,7.70
2023-02-11T14:04:36.369Z,7.80
2023-02-11T14:07:40.858Z,7.80
2023-02-11T14:10:27.452Z,7.80
2023-02-11T14:13:17.598Z,7.80
2023-02-11T14:15:45.880Z,7.70
2023-02-11T14:18:31.254Z,7.80
2023-02-11T14:21:10.022Z,7.70
2023-02-11T14:23:37.575Z,7.70
2023-02-11T14:26:20.091Z,7.80
2023-02-11T14:28:59.278Z,7.70
2023-02-11T14:31:41.996Z,7.70
2023-02-11T14:34:36.730Z,7.70
2023-02-11T14:37:09.574Z,7.70
2023-02-11T14:39:58.184Z,7.70
2023-02-11T14:42:27.209Z,7.70
2023-02-11T14:44:55.598Z,7.70
2023-02-11T14:47:42.159Z,8.90
2023-02-11T14:50:17.870Z,7.60
2023-02-11T14:52:44.672Z,7.70
2023-02-11T14:55:30.093Z,7.70
2023-02-11T14:58:13.888Z,7.60
2023-02-11T15:00:47.621Z,7.50
2023-02-11T15:03:27.888Z,7.50
2023-02-11T15:06:00.133Z,7.50
2023-02-11T15:08:27.146Z,7.60
2023-02-11T15:10:55.045Z,7.50
2023-02-11T15:13:27.126Z,7.50
2023-02-11T15:16:18.410Z,7.50
2023-02-11T15:18:51.712Z,7.60
2023-02-11T15:21:22.775Z,7.40
2023-02-11T15:23:56.979Z,7.40
2023-02-11T15:26:23.656Z,7.40
2023-02-11T15:28:52.232Z,7.40
2023-02-11T15:31:21.365Z,7.40
2023-02-11T15:33:48.047Z,7.40
2023-02-11T15:36:15.267Z,7.40
2023-02-11T15:38:41.905Z,7.30
2023-02-11T15:41:08.735Z,7.30
2023-02-11T15:43:45.816Z,7.30
2023-02-11T15:46:15.137Z,7.20
2023-02-11T15:48:43.137Z,7.20
2023-02-11T15:51:21.942Z,7.10
2023-02-11T15:53:59.229Z,7.00
2023-02-11T15:56:33.008Z,6.90
2023-02-11T15:59:00.656Z,6.90
2023-02-11T16:01:37.084Z,6.80
2023-02-11T16:04:05.436Z,6.80
2023-02-11T16:06:42.333Z,8.40
2023-02-11T16:09:10.071Z,6.60
2023-02-11T16:11:53.700Z,8.80
2023-02-11T16:14:23.554Z,6.40
2023-02-11T16:16:51.590Z,6.20
2023-02-11T16:19:19.116Z,6.10
2023-02-11T16:21:46.023Z,6.00
2023-02-11T16:24:19.210Z,5.90
2023-02-11T16:26:48.832Z,5.80
2023-02-11T16:29:16.958Z,5.80
2023-02-11T16:31:45.355Z,5.80
2023-02-11T16:34:16.929Z,5.80
2023-02-11T16:36:43.595Z,5.70
2023-02-11T16:39:10.405Z,5.60
2023-02-11T16:41:37.036Z,5.60
2023-02-11T16:44:03.701Z,5.60
2023-02-11T16:46:31.177Z,8.10
2023-02-11T16:48:58.733Z,5.30
2023-02-11T16:51:25.485Z,5.30
2023-02-11T16:53:52.069Z,5.20
2023-02-11T16:56:18.779Z,5.10
2023-02-11T16:58:45.489Z,5.00
2023-02-11T17:01:14.076Z,5.00
2023-02-11T17:03:41.127Z,7.30
2023-02-11T17:06:11.626Z,4.90
2023-02-11T17:08:39.501Z,4.80
2023-02-11T17:11:06.151Z,4.80
2023-02-11T17:13:33.124Z,4.70
2023-02-11T17:15:59.733Z,4.70
2023-02-11T17:18:26.441Z,4.70
2023-02-11T17:20:53.127Z,4.70
2023-02-11T17:23:19.708Z,4.60
2023-02-11T17:25:46.361Z,4.60
2023-02-11T17:28:13.060Z,4.60
2023-02-11T17:30:41.633Z,4.60
2023-02-11T17:33:10.028Z,4.50
2023-02-11T17:35:39.260Z,4.50
2023-02-11T17:38:05.982Z,4.50
2023-02-11T17:40:32.584Z,4.50
2023-02-11T17:42:59.263Z,4.50
2023-02-11T17:45:25.873Z,4.50
2023-02-11T17:47:52.567Z,4.50
2023-02-11T17:50:19.211Z,5.30
2023-02-11T17:52:45.833Z,4.50
2023-02-11T17:55:12.472Z,4.50
2023-02-11T17:57:39.194Z,6.80
2023-02-11T18:00:06.990Z,6.60
2023-02-11T18:02:33.982Z,4.00
2023-02-11T18:05:00.677Z,4.60
2023-02-11T18:07:27.418Z,4.60
2023-02-11T18:09:54.082Z,4.60
2023-02-11T18:12:25.206Z,4.60
2023-02-11T18:14:58.033Z,6.90
2023-02-11T18:17:25.050Z,4.50
2023-02-11T18:19:54.922Z,4.50
2023-02-11T18:22:21.565Z,4.50
2023-02-11T18:24:51.587Z,4.50
2023-02-11T18:27:18.172Z,4.50
2023-02-11T18:29:44.736Z,4.50
2023-02-11T18:32:11.402Z,4.50
2023-02-11T18:34:39.708Z,4.50
2023-02-11T18:37:06.409Z,4.50
2023-02-11T18:39:33.114Z,4.50
2023-02-11T18:41:59.847Z,4.50
2023-02-11T18:44:27.103Z,4.50
2023-02-11T18:46:53.949Z,4.50
2023-02-11T18:49:20.594Z,5.70
2023-02-11T18:51:47.532Z,4.30
2023-02-11T18:54:14.106Z,4.30
2023-02-11T18:56:40.965Z,4.20
2023-02-11T18:59:07.619Z,4.10
2023-02-11T19:01:34.644Z,3.90
2023-02-11T19:04:03.524Z,3.90
2023-02-11T19:06:35.134Z,3.70
2023-02-11T19:09:04.440Z,3.70
2023-02-11T19:11:46.890Z,3.70
2023-02-11T19:14:14.233Z,3.60
2023-02-11T19:16:42.130Z,3.60
2023-02-11T19:19:09.178Z,3.70
2023-02-11T19:21:36.041Z,3.60
2023-02-11T19:24:07.043Z,3.60
2023-02-11T19:26:34.371Z,3.60
2023-02-11T19:29:01.186Z,3.50
2023-02-11T19:31:27.987Z,3.50
2023-02-11T19:33:54.771Z,3.50
2023-02-11T19:36:21.454Z,3.50
2023-02-11T19:38:48.219Z,3.50
2023-02-11T19:41:22.191Z,3.50
2023-02-11T19:43:52.970Z,3.50
2023-02-11T19:46:20.742Z,3.50
2023-02-11T19:48:48.401Z,5.40
2023-02-11T19:51:15.085Z,3.50
2023-02-11T19:53:42.298Z,3.50
2023-02-11T19:56:09.043Z,3.50
2023-02-11T19:58:35.779Z,3.50
2023-02-11T20:01:06.830Z,3.40
2023-02-11T20:03:33.518Z,3.30
2023-02-11T20:06:00.372Z,3.30
2023-02-11T20:08:26.998Z,3.30
2023-02-11T20:10:53.634Z,3.20
2023-02-11T20:13:20.306Z,3.10
2023-02-11T20:15:47.571Z,2.70
2023-02-11T20:18:14.289Z,2.90
2023-02-11T20:20:40.958Z,2.90
2023-02-11T20:23:07.604Z,2.80
2023-02-11T20:25:34.194Z,2.80
2023-02-11T20:28:00.883Z,2.80
2023-02-11T20:30:27.558Z,2.80
2023-02-11T20:32:54.217Z,2.80
2023-02-11T20:35:21.015Z,2.80
2023-02-11T20:37:47.697Z,2.80
2023-02-11T20:40:14.373Z,2.80
2023-02-11T20:42:41.061Z,2.80
2023-02-11T20:45:07.871Z,2.80
2023-02-11T20:47:34.539Z,2.70
2023-02-11T20:50:01.096Z,2.70
2023-02-11T20:52:28.781Z,2.70
2023-02-11T20:54:55.343Z,2.60
2023-02-11T20:57:22.367Z,2.60
2023-02-11T20:59:49.018Z,2.70
2023-02-11T21:02:15.699Z,2.60
2023-02-11T21:04:42.343Z,3.10
2023-02-11T21:07:09.022Z,2.60
2023-02-11T21:09:35.686Z,2.60
2023-02-11T21:12:02.558Z,2.60
2023-02-11T21:14:29.448Z,2.50
2023-02-11T21:16:56.243Z,2.50
2023-02-11T21:19:23.049Z,2.50
2023-02-11T21:21:49.783Z,2.50
2023-02-11T21:24:16.474Z,2.50
2023-02-11T21:26:43.206Z,2.60
2023-02-11T21:29:10.156Z,2.60
2023-02-11T21:31:37.350Z,2.60
2023-02-11T21:34:04.673Z,2.60
2023-02-11T21:36:31.280Z,2.60
2023-02-11T21:38:58.377Z,2.60
2023-02-11T21:41:25.099Z,3.50
2023-02-11T21:43:51.872Z,2.60
2023-02-11T21:46:19.085Z,4.40
2023-02-11T21:48:45.774Z,2.70
2023-02-11T21:51:16.906Z,2.70
2023-02-11T21:53:43.555Z,3.30
2023-02-11T21:56:11.792Z,2.70
2023-02-11T21:58:38.796Z,2.80
2023-02-11T22:01:11.746Z,2.70
2023-02-11T22:03:38.422Z,2.70
2023-02-11T22:06:09.327Z,2.70
2023-02-11T22:08:36.197Z,2.60
2023-02-11T22:11:04.108Z,2.70
2023-02-11T22:13:30.758Z,2.60
2023-02-11T22:15:58.451Z,2.60
2023-02-11T22:18:25.115Z,2.60
2023-02-11T22:21:05.498Z,3.40
2023-02-11T22:23:32.451Z,2.60
2023-02-11T22:26:02.601Z,2.60
2023-02-11T22:28:30.059Z,2.50
2023-02-11T22:30:57.560Z,2.70
2023-02-11T22:33:24.882Z,2.70
2023-02-11T22:35:58.633Z,2.80
2023-02-11T22:38:25.652Z,2.80
2023-02-11T22:40:52.339Z,2.80
2023-02-11T22:43:18.971Z,2.80
2023-02-11T22:45:45.637Z,2.80
2023-02-11T22:48:12.354Z,2.80
2023-02-11T22:50:38.971Z,2.80
2023-02-11T22:53:05.623Z,2.70
2023-02-11T22:55:35.804Z,2.70
2023-02-11T22:58:02.449Z,2.70
2023-02-11T23:00:30.827Z,2.80
2023-02-11T23:02:57.440Z,2.80
2023-02-11T23:05:24.065Z,2.80
2023-02-11T23:07:50.705Z,2.80
2023-02-11T23:10:17.447Z,2.80
2023-02-11T23:12:44.121Z,2.80
2023-02-11T23:15:10.766Z,2.80
2023-02-11T23:17:37.453Z,2.80
2023-02-11T23:20:04.141Z,2.90
2023-02-11T23:22:30.878Z,2.80
2023-02-11T23:24:57.540Z,2.80
2023-02-11T23:27:24.216Z,2.80
2023-02-11T23:29:50.893Z,2.80
2023-02-11T23:32:19.002Z,2.80
2023-02-11T23:34:45.695Z,2.80
2023-02-11T23:37:12.408Z,3.70
2023-02-11T23:39:39.140Z,2.80
2023-02-11T23:42:05.778Z,2.80
2023-02-11T23:44:32.420Z,2.80
2023-02-11T23:46:59.122Z,2.80
2023-02-11T23:49:25.866Z,2.80
2023-02-11T23:51:52.528Z,2.70
2023-02-11T23:54:19.151Z,2.70
2023-02-11T23:56:46.117Z,2.70
2023-02-11T23:59:12.821Z,2.70
